createdAt,value
2018-08-28T00:01:33.968Z,18.95
2018-08-28T00:04:03.707Z,18.88
2018-08-28T00:06:32.076Z,18.84
2018-08-28T00:09:00.496Z,18.88
2018-08-28T00:11:30.223Z,18.83
2018-08-28T00:13:58.548Z,18.74
2018-08-28T00:16:27.031Z,18.70
2018-08-28T00:18:55.341Z,18.71
2018-08-28T00:21:24.562Z,18.82
2018-08-28T00:23:53.124Z,18.82
2018-08-28T00:26:21.470Z,18.66
2018-08-28T00:28:49.748Z,18.58
2018-08-28T00:31:18.424Z,18.55
2018-08-28T00:33:47.077Z,18.55
2018-08-28T00:36:16.274Z,18.50
2018-08-28T00:38:44.615Z,18.46
2018-08-28T00:41:13.304Z,18.58
2018-08-28T00:43:42.093Z,18.53
2018-08-28T00:46:11.350Z,18.51
2018-08-28T00:48:39.566Z,18.43
2018-08-28T00:51:08.148Z,18.37
2018-08-28T00:53:36.392Z,18.33
2018-08-28T00:56:05.019Z,18.32
2018-08-28T00:58:33.457Z,18.46
2018-08-28T01:01:02.252Z,18.30
2018-08-28T01:03:30.838Z,18.25
2018-08-28T01:05:59.828Z,18.28
2018-08-28T01:08:28.064Z,18.15
2018-08-28T01:10:56.293Z,18.06
2018-08-28T01:13:24.790Z,17.95
2018-08-28T01:15:53.000Z,17.84
2018-08-28T01:18:21.752Z,18.00
2018-08-28T01:20:51.112Z,18.07
2018-08-28T01:23:21.668Z,17.91
2018-08-28T01:25:50.487Z,17.87
2018-08-28T01:28:19.192Z,17.77
2018-08-28T01:30:47.744Z,17.75
2018-08-28T01:33:16.645Z,17.71
2018-08-28T01:35:44.914Z,17.70
2018-08-28T01:38:14.247Z,17.72
2018-08-28T01:40:42.665Z,17.64
2018-08-28T01:43:16.588Z,17.61
2018-08-28T01:45:45.976Z,17.49
2018-08-28T01:48:14.597Z,17.59
2018-08-28T01:50:42.895Z,17.43
2018-08-28T01:53:11.594Z,17.36
2018-08-28T01:55:40.220Z,17.23
2018-08-28T01:58:08.483Z,17.24
2018-08-28T02:00:37.032Z,17.17
2018-08-28T02:03:05.582Z,17.10
2018-08-28T02:05:34.236Z,17.25
2018-08-28T02:08:02.543Z,17.24
2018-08-28T02:10:31.368Z,17.16
2018-08-28T02:13:00.313Z,17.10
2018-08-28T02:15:28.605Z,17.05
2018-08-28T02:17:56.855Z,17.13
2018-08-28T02:20:25.828Z,17.12
2018-08-28T02:22:54.047Z,17.09
2018-08-28T02:25:22.921Z,17.14
2018-08-28T02:27:51.529Z,17.37
2018-08-28T02:30:20.333Z,17.41
2018-08-28T02:32:48.918Z,17.41
2018-08-28T02:35:17.214Z,17.40
2018-08-28T02:37:45.560Z,17.33
2018-08-28T02:40:14.120Z,17.27
2018-08-28T02:42:42.335Z,17.33
2018-08-28T02:45:10.601Z,17.35
2018-08-28T02:47:39.275Z,17.25
2018-08-28T02:50:07.547Z,17.24
2018-08-28T02:52:36.248Z,17.09
2018-08-28T02:55:04.712Z,16.99
2018-08-28T02:57:33.614Z,16.92
2018-08-28T03:00:01.850Z,16.84
2018-08-28T03:02:30.656Z,16.83
2018-08-28T03:04:59.240Z,16.81
2018-08-28T03:07:28.028Z,16.80
2018-08-28T03:09:56.955Z,16.65
2018-08-28T03:12:25.545Z,16.56
2018-08-28T03:14:53.876Z,16.52
2018-08-28T03:17:22.148Z,16.44
2018-08-28T03:19:50.729Z,16.37
2018-08-28T03:22:19.940Z,16.30
2018-08-28T03:24:48.391Z,16.25
2018-08-28T03:27:16.812Z,16.19
2018-08-28T03:29:45.051Z,16.17
2018-08-28T03:32:14.109Z,16.11
2018-08-28T03:34:42.964Z,16.09
2018-08-28T03:37:11.802Z,16.11
2018-08-28T03:39:40.334Z,16.03
2018-08-28T03:42:08.918Z,15.98
2018-08-28T03:44:37.159Z,16.00
2018-08-28T03:47:05.547Z,15.94
2018-08-28T03:49:33.858Z,15.88
2018-08-28T03:52:02.773Z,15.75
2018-08-28T03:54:31.425Z,15.73
2018-08-28T03:57:00.008Z,15.69
2018-08-28T03:59:28.318Z,15.62
2018-08-28T04:01:56.824Z,15.68
2018-08-28T04:04:25.355Z,15.65
2018-08-28T04:06:55.375Z,15.54
2018-08-28T04:09:24.909Z,15.53
2018-08-28T04:11:54.588Z,15.49
2018-08-28T04:14:23.479Z,15.48
2018-08-28T04:16:52.558Z,15.40
2018-08-28T04:19:20.891Z,15.39
2018-08-28T04:21:49.157Z,15.38
2018-08-28T04:24:18.380Z,15.42
2018-08-28T04:26:46.941Z,15.45
2018-08-28T04:29:15.179Z,15.52
2018-08-28T04:31:44.112Z,15.51
2018-08-28T04:34:12.338Z,15.44
2018-08-28T04:36:40.568Z,15.46
2018-08-28T04:39:09.525Z,15.53
2018-08-28T04:41:37.843Z,15.59
2018-08-28T04:44:06.328Z,15.61
2018-08-28T04:46:34.696Z,15.57
2018-08-28T04:49:03.337Z,15.58
2018-08-28T04:51:32.336Z,15.59
2018-08-28T04:54:00.598Z,15.70
2018-08-28T04:56:29.086Z,15.72
2018-08-28T04:58:57.332Z,15.74
2018-08-28T05:01:26.216Z,15.78
2018-08-28T05:03:54.731Z,15.87
2018-08-28T05:06:23.090Z,15.99
2018-08-28T05:08:51.504Z,16.09
2018-08-28T05:11:20.547Z,16.21
2018-08-28T05:13:49.304Z,16.26
2018-08-28T05:16:17.512Z,16.27
2018-08-28T05:18:46.291Z,16.36
2018-08-28T05:21:14.973Z,16.54
2018-08-28T05:23:43.403Z,16.50
2018-08-28T05:26:12.249Z,16.60
2018-08-28T05:28:40.688Z,16.76
2018-08-28T05:31:09.660Z,16.76
2018-08-28T05:33:38.268Z,16.78
2018-08-28T05:36:07.910Z,16.83
2018-08-28T05:38:36.285Z,16.77
2018-08-28T05:41:04.978Z,16.84
2018-08-28T05:43:33.885Z,16.90
2018-08-28T05:46:03.701Z,16.99
2018-08-28T05:48:32.343Z,16.94
2018-08-28T05:51:01.873Z,17.04
2018-08-28T05:53:31.022Z,17.12
2018-08-28T05:55:59.541Z,17.23
2018-08-28T05:58:28.212Z,17.31
2018-08-28T06:00:56.701Z,17.57
2018-08-28T06:03:26.015Z,17.54
2018-08-28T06:05:55.454Z,17.68
2018-08-28T06:08:24.760Z,17.79
2018-08-28T06:10:53.063Z,17.82
2018-08-28T06:13:21.693Z,18.03
2018-08-28T06:15:50.272Z,18.18
2018-08-28T06:18:18.626Z,18.26
2018-08-28T06:20:47.037Z,18.27
2018-08-28T06:23:15.949Z,18.33
2018-08-28T06:25:44.472Z,18.40
2018-08-28T06:28:13.019Z,18.59
2018-08-28T06:30:41.796Z,18.41
2018-08-28T06:33:10.387Z,18.30
2018-08-28T06:35:38.984Z,18.49
2018-08-28T06:38:07.317Z,18.60
2018-08-28T06:40:35.592Z,18.70
2018-08-28T06:43:04.057Z,18.55
2018-08-28T06:45:34.579Z,18.64
2018-08-28T06:48:02.852Z,18.59
2018-08-28T06:50:31.367Z,18.52
2018-08-28T06:52:59.713Z,18.62
2018-08-28T06:55:28.260Z,18.87
2018-08-28T06:57:56.498Z,19.05
2018-08-28T07:00:24.770Z,19.35
2018-08-28T07:02:53.676Z,19.65
2018-08-28T07:05:22.013Z,19.96
2018-08-28T07:07:51.918Z,19.97
2018-08-28T07:10:20.273Z,20.19
2018-08-28T07:12:49.784Z,20.20
2018-08-28T07:15:18.358Z,20.21
2018-08-28T07:17:47.761Z,20.33
2018-08-28T07:20:16.744Z,20.53
2018-08-28T07:22:45.177Z,20.52
2018-08-28T07:25:15.316Z,20.72
2018-08-28T07:27:43.590Z,20.63
2018-08-28T07:30:12.458Z,20.79
2018-08-28T07:32:41.108Z,20.76
2018-08-28T07:35:10.060Z,20.83
2018-08-28T07:37:38.745Z,21.01
2018-08-28T07:40:08.627Z,21.08
2018-08-28T07:42:37.489Z,21.12
2018-08-28T07:45:06.048Z,20.98
2018-08-28T07:47:34.982Z,21.12
2018-08-28T07:50:03.800Z,21.38
2018-08-28T07:52:32.335Z,21.30
2018-08-28T07:55:00.882Z,21.74
2018-08-28T07:57:29.887Z,21.58
2018-08-28T07:59:58.401Z,21.67
2018-08-28T08:02:26.987Z,22.00
2018-08-28T08:04:56.210Z,21.73
2018-08-28T08:07:25.873Z,21.89
2018-08-28T08:09:54.542Z,21.93
2018-08-28T08:12:22.801Z,22.08
2018-08-28T08:14:52.475Z,22.13
2018-08-28T08:17:23.058Z,22.13
2018-08-28T08:19:52.108Z,22.32
2018-08-28T08:22:24.546Z,22.58
2018-08-28T08:24:56.484Z,22.47
2018-08-28T08:27:27.377Z,22.46
2018-08-28T08:29:56.199Z,22.42
2018-08-28T08:32:26.117Z,23.00
2018-08-28T08:34:54.653Z,22.44
2018-08-28T08:37:25.106Z,22.85
2018-08-28T08:39:53.687Z,23.03
2018-08-28T08:42:22.108Z,22.78
2018-08-28T08:44:50.456Z,23.11
2018-08-28T08:47:18.833Z,22.26
2018-08-28T08:49:47.328Z,22.26
2018-08-28T08:52:15.624Z,22.55
2018-08-28T08:54:44.172Z,22.67
2018-08-28T08:57:12.491Z,23.05
2018-08-28T08:59:40.720Z,22.48
2018-08-28T09:02:08.954Z,22.91
2018-08-28T09:04:37.411Z,23.25
2018-08-28T09:07:05.661Z,23.47
2018-08-28T09:09:34.218Z,23.35
2018-08-28T09:12:02.707Z,23.40
2018-08-28T09:14:31.089Z,23.76
2018-08-28T09:16:59.366Z,23.92
2018-08-28T09:19:28.592Z,24.19
2018-08-28T09:21:56.929Z,24.22
2018-08-28T09:24:25.296Z,24.20
2018-08-28T09:26:53.710Z,23.98
2018-08-28T09:29:22.117Z,24.39
2018-08-28T09:31:50.407Z,24.85
2018-08-28T09:34:18.977Z,24.56
2018-08-28T09:36:48.477Z,24.77
2018-08-28T09:39:17.048Z,25.20
2018-08-28T09:41:46.401Z,24.73
2018-08-28T09:44:15.002Z,25.18
2018-08-28T09:46:43.528Z,25.09
2018-08-28T09:49:11.728Z,25.25
2018-08-28T09:51:40.525Z,25.17
2018-08-28T09:54:10.682Z,25.19
2018-08-28T09:56:40.254Z,25.65
2018-08-28T09:59:09.878Z,25.38
2018-08-28T10:01:45.765Z,24.94
2018-08-28T10:04:16.977Z,25.25
2018-08-28T10:06:48.021Z,25.13
2018-08-28T10:09:17.865Z,25.24
2018-08-28T10:11:46.846Z,25.91
2018-08-28T10:14:16.519Z,25.99
2018-08-28T10:16:46.075Z,26.80
2018-08-28T10:19:15.639Z,26.72
2018-08-28T10:21:44.762Z,26.30
2018-08-28T10:24:15.722Z,26.55
2018-08-28T10:26:44.422Z,26.19
2018-08-28T10:29:14.426Z,26.26
2018-08-28T10:31:43.045Z,26.20
2018-08-28T10:34:11.494Z,26.42
2018-08-28T10:36:41.182Z,26.94
2018-08-28T10:39:10.553Z,27.68
2018-08-28T10:41:40.687Z,27.85
2018-08-28T10:44:09.178Z,28.15
2018-08-28T10:46:51.094Z,27.66
2018-08-28T10:49:21.933Z,27.59
2018-08-28T10:51:51.282Z,27.32
2018-08-28T10:54:21.732Z,27.05
2018-08-28T10:56:51.153Z,27.76
2018-08-28T10:59:20.764Z,27.10
2018-08-28T11:01:49.892Z,27.03
2018-08-28T11:04:21.510Z,26.89
2018-08-28T11:06:51.349Z,27.08
2018-08-28T11:09:20.174Z,26.96
2018-08-28T11:11:49.204Z,27.06
2018-08-28T11:14:19.281Z,27.11
2018-08-28T11:16:49.556Z,27.13
2018-08-28T11:19:19.044Z,27.22
2018-08-28T11:21:48.892Z,27.94
2018-08-28T11:24:18.492Z,27.67
2018-08-28T11:26:47.215Z,28.18
2018-08-28T11:29:16.193Z,28.20
2018-08-28T11:31:44.790Z,28.51
2018-08-28T11:34:14.272Z,28.36
2018-08-28T11:36:46.653Z,28.26
2018-08-28T11:39:17.080Z,28.57
2018-08-28T11:41:45.589Z,28.72
2018-08-28T11:44:14.530Z,29.00
2018-08-28T11:46:43.323Z,28.71
2018-08-28T11:49:11.977Z,28.71
2018-08-28T11:51:43.749Z,28.75
2018-08-28T11:54:13.875Z,29.12
2018-08-28T11:56:42.298Z,29.35
2018-08-28T11:59:12.397Z,29.34
2018-08-28T12:01:40.921Z,29.08
2018-08-28T12:04:09.710Z,29.04
2018-08-28T12:06:39.280Z,29.04
2018-08-28T12:09:08.801Z,28.93
2018-08-28T12:11:37.421Z,28.57
2018-08-28T12:14:06.255Z,28.30
2018-08-28T12:16:35.807Z,28.10
2018-08-28T12:19:04.859Z,27.99
2018-08-28T12:21:33.570Z,28.11
2018-08-28T12:24:02.661Z,28.50
2018-08-28T12:26:31.150Z,28.86
2018-08-28T12:29:01.816Z,29.46
2018-08-28T12:31:30.155Z,29.30
2018-08-28T12:33:59.490Z,29.34
2018-08-28T12:36:29.459Z,29.58
2018-08-28T12:38:58.093Z,29.25
2018-08-28T12:41:27.753Z,29.45
2018-08-28T12:43:57.076Z,29.80
2018-08-28T12:46:26.464Z,29.60
2018-08-28T12:48:55.126Z,29.88
2018-08-28T12:51:24.983Z,29.38
2018-08-28T12:53:54.366Z,30.18
2018-08-28T12:56:23.439Z,29.54
2018-08-28T12:58:53.024Z,29.62
2018-08-28T13:01:21.284Z,29.92
2018-08-28T13:03:50.431Z,29.77
2018-08-28T13:06:19.491Z,30.90
2018-08-28T13:08:48.786Z,31.70
2018-08-28T13:11:17.169Z,31.26
2018-08-28T13:13:45.973Z,31.19
2018-08-28T13:16:14.996Z,31.24
2018-08-28T13:18:43.543Z,32.16
2018-08-28T13:21:12.117Z,33.04
2018-08-28T13:23:40.696Z,33.98
2018-08-28T13:26:09.481Z,35.33
2018-08-28T13:28:38.119Z,35.10
2018-08-28T13:31:06.619Z,34.19
2018-08-28T13:33:35.664Z,35.59
2018-08-28T13:36:04.220Z,36.29
2018-08-28T13:38:32.582Z,36.57
2018-08-28T13:41:01.198Z,37.73
2018-08-28T13:43:29.392Z,38.01
2018-08-28T13:45:57.943Z,35.80
2018-08-28T13:48:26.326Z,36.55
2018-08-28T13:50:54.684Z,36.76
2018-08-28T13:53:33.046Z,37.75
2018-08-28T13:56:02.390Z,38.49
2018-08-28T13:58:31.128Z,38.27
2018-08-28T14:01:00.898Z,40.22
2018-08-28T14:03:29.756Z,40.71
2018-08-28T14:06:05.621Z,40.05
2018-08-28T14:08:34.293Z,39.74
2018-08-28T14:11:02.904Z,39.06
2018-08-28T14:13:31.622Z,40.30
2018-08-28T14:15:59.781Z,40.79
2018-08-28T14:18:28.352Z,39.92
2018-08-28T14:20:56.747Z,39.37
2018-08-28T14:23:25.452Z,39.43
2018-08-28T14:25:54.310Z,40.39
2018-08-28T14:28:22.659Z,40.77
2018-08-28T14:30:52.527Z,42.16
2018-08-28T14:33:20.674Z,42.00
2018-08-28T14:35:49.705Z,40.35
2018-08-28T14:38:18.277Z,41.31
2018-08-28T14:40:46.921Z,40.92
2018-08-28T14:43:17.096Z,39.86
2018-08-28T14:45:45.493Z,39.74
2018-08-28T14:48:14.910Z,39.11
2018-08-28T14:50:43.662Z,40.47
2018-08-28T14:53:15.675Z,40.55
2018-08-28T14:55:44.109Z,39.70
2018-08-28T14:58:12.895Z,41.75
2018-08-28T15:00:41.565Z,41.91
2018-08-28T15:03:09.949Z,42.79
2018-08-28T15:05:38.196Z,41.26
2018-08-28T15:08:07.495Z,39.73
2018-08-28T15:10:37.081Z,39.77
2018-08-28T15:13:06.060Z,39.09
2018-08-28T15:15:34.313Z,40.12
2018-08-28T15:18:02.612Z,41.59
2018-08-28T15:20:31.296Z,41.85
2018-08-28T15:23:00.981Z,40.59
2018-08-28T15:25:30.698Z,40.64
2018-08-28T15:27:59.177Z,40.16
2018-08-28T15:30:27.530Z,39.99
2018-08-28T15:32:56.734Z,41.53
2018-08-28T15:35:25.777Z,41.81
2018-08-28T15:37:54.024Z,41.74
2018-08-28T15:40:23.150Z,40.96
2018-08-28T15:42:51.508Z,40.76
2018-08-28T15:45:20.083Z,40.95
2018-08-28T15:47:48.805Z,40.93
2018-08-28T15:50:18.339Z,40.13
2018-08-28T15:52:47.258Z,40.09
2018-08-28T15:55:15.976Z,39.76
2018-08-28T15:57:44.719Z,40.61
2018-08-28T16:00:13.484Z,39.24
2018-08-28T16:02:41.597Z,39.42
2018-08-28T16:05:12.404Z,39.30
2018-08-28T16:07:42.998Z,39.83
2018-08-28T16:10:13.287Z,40.46
2018-08-28T16:12:41.678Z,39.40
2018-08-28T16:15:10.884Z,39.14
2018-08-28T16:17:39.920Z,38.76
2018-08-28T16:20:08.907Z,38.59
2018-08-28T16:22:44.160Z,37.98
2018-08-28T16:25:12.688Z,37.98
2018-08-28T16:27:42.081Z,38.36
2018-08-28T16:30:10.573Z,38.35
2018-08-28T16:32:39.432Z,37.74
2018-08-28T16:35:07.860Z,37.56
2018-08-28T16:37:36.585Z,36.70
2018-08-28T16:40:05.795Z,37.21
2018-08-28T16:42:34.164Z,38.11
2018-08-28T16:45:02.960Z,37.87
2018-08-28T16:47:32.265Z,35.81
2018-08-28T16:50:00.682Z,36.49
2018-08-28T16:52:29.325Z,36.67
2018-08-28T16:54:58.022Z,36.61
2018-08-28T16:57:27.290Z,36.29
2018-08-28T16:59:55.888Z,35.95
2018-08-28T17:02:24.475Z,35.67
2018-08-28T17:04:53.125Z,35.04
2018-08-28T17:07:21.634Z,35.75
2018-08-28T17:09:50.119Z,34.99
2018-08-28T17:12:19.266Z,33.95
2018-08-28T17:14:48.366Z,33.98
2018-08-28T17:17:17.124Z,33.02
2018-08-28T17:19:45.568Z,32.64
2018-08-28T17:22:16.978Z,31.28
2018-08-28T17:27:22.856Z,29.22
2018-08-28T17:29:52.110Z,28.70
2018-08-28T17:32:21.969Z,28.39
2018-08-28T17:34:53.919Z,27.96
2018-08-28T17:37:22.820Z,27.69
2018-08-28T17:42:29.648Z,27.17
2018-08-28T17:44:59.640Z,27.01
2018-08-28T17:47:28.433Z,26.65
2018-08-28T17:49:57.170Z,26.51
2018-08-28T17:52:26.234Z,26.13
2018-08-28T17:54:54.905Z,25.93
2018-08-28T17:57:25.569Z,26.07
2018-08-28T17:59:56.938Z,25.92
2018-08-28T18:02:25.237Z,25.70
2018-08-28T18:04:57.096Z,25.33
2018-08-28T18:07:25.804Z,25.08
2018-08-28T18:09:54.216Z,24.97
2018-08-28T18:12:22.642Z,24.83
2018-08-28T18:14:51.607Z,24.69
2018-08-28T18:17:20.536Z,24.55
2018-08-28T18:19:50.800Z,24.38
2018-08-28T18:22:19.811Z,24.22
2018-08-28T18:24:48.147Z,24.06
2018-08-28T18:27:17.035Z,24.07
2018-08-28T18:29:46.068Z,23.88
2018-08-28T18:32:14.445Z,23.76
2018-08-28T18:34:42.870Z,23.69
2018-08-28T18:37:11.271Z,23.55
2018-08-28T18:39:39.716Z,23.40
2018-08-28T18:42:09.459Z,23.49
2018-08-28T18:44:38.678Z,23.59
2018-08-28T18:49:51.953Z,23.50
2018-08-28T18:52:22.583Z,23.32
2018-08-28T18:54:51.434Z,23.30
2018-08-28T18:57:19.664Z,23.26
2018-08-28T18:59:48.519Z,23.01
2018-08-28T19:02:17.568Z,22.97
2018-08-28T19:04:45.920Z,22.85
2018-08-28T19:07:14.470Z,22.61
2018-08-28T19:09:43.368Z,22.50
2018-08-28T19:12:12.009Z,22.47
2018-08-28T19:14:41.636Z,22.48
2018-08-28T19:17:10.431Z,22.41
2018-08-28T19:19:39.963Z,22.30
2018-08-28T19:22:08.823Z,22.34
2018-08-28T19:24:37.346Z,22.38
2018-08-28T19:27:06.561Z,22.38
2018-08-28T19:29:35.181Z,22.33
2018-08-28T19:32:03.711Z,22.16
2018-08-28T19:34:32.521Z,22.08
2018-08-28T19:37:02.098Z,21.99
2018-08-28T19:39:34.098Z,21.97
2018-08-28T19:42:03.277Z,21.92
2018-08-28T19:44:35.023Z,21.91
2018-08-28T19:47:04.241Z,21.92
2018-08-28T19:49:32.549Z,21.84
2018-08-28T19:52:01.472Z,21.82
2018-08-28T19:54:31.300Z,21.82
2018-08-28T19:56:59.969Z,21.75
2018-08-28T19:59:28.458Z,21.62
2018-08-28T20:01:56.802Z,21.55
2018-08-28T20:04:26.027Z,21.64
2018-08-28T20:06:55.038Z,21.60
2018-08-28T20:09:23.448Z,21.56
2018-08-28T20:11:51.885Z,21.48
2018-08-28T20:14:20.724Z,21.49
2018-08-28T20:16:48.919Z,21.39
2018-08-28T20:19:19.588Z,21.26
2018-08-28T20:21:48.131Z,21.28
2018-08-28T20:24:16.511Z,21.25
2018-08-28T20:26:45.372Z,21.22
2018-08-28T20:29:14.014Z,21.11
2018-08-28T20:31:42.660Z,21.00
2018-08-28T20:34:13.796Z,20.92
2018-08-28T20:39:26.678Z,20.89
2018-08-28T20:41:55.094Z,20.81
2018-08-28T20:44:23.691Z,20.71
2018-08-28T20:46:52.484Z,20.53
2018-08-28T20:49:20.872Z,20.60
2018-08-28T20:51:49.325Z,20.50
2018-08-28T20:54:17.958Z,20.41
2018-08-28T20:56:46.324Z,20.29
2018-08-28T20:59:14.812Z,20.31
2018-08-28T21:01:43.409Z,20.33
2018-08-28T21:04:11.605Z,20.19
2018-08-28T21:06:39.914Z,20.25
2018-08-28T21:09:08.507Z,20.08
2018-08-28T21:11:38.211Z,20.12
2018-08-28T21:14:06.635Z,20.01
2018-08-28T21:16:34.961Z,19.92
2018-08-28T21:19:03.285Z,19.84
2018-08-28T21:21:31.629Z,19.75
2018-08-28T21:24:00.151Z,19.75
2018-08-28T21:26:30.025Z,19.80
2018-08-28T21:28:59.535Z,19.76
2018-08-28T21:31:27.882Z,19.73
2018-08-28T21:33:56.275Z,19.69
2018-08-28T21:36:24.576Z,19.73
2018-08-28T21:38:52.944Z,19.67
2018-08-28T21:41:21.266Z,19.56
2018-08-28T21:43:49.529Z,19.56
2018-08-28T21:46:18.064Z,19.71
2018-08-28T21:48:46.463Z,19.65
2018-08-28T21:51:14.805Z,19.51
2018-08-28T21:53:43.291Z,19.43
2018-08-28T21:56:11.594Z,19.39
2018-08-28T21:58:39.868Z,19.36
2018-08-28T22:01:11.243Z,19.33
2018-08-28T22:03:41.105Z,19.26
2018-08-28T22:06:14.848Z,19.29
2018-08-28T22:08:44.592Z,19.25
2018-08-28T22:11:13.511Z,19.23
2018-08-28T22:13:42.525Z,19.17
2018-08-28T22:16:10.802Z,19.15
2018-08-28T22:18:40.660Z,19.11
2018-08-28T22:21:08.997Z,19.20
2018-08-28T22:23:37.425Z,19.11
2018-08-28T22:26:06.430Z,19.03
2018-08-28T22:28:34.633Z,19.01
2018-08-28T22:31:03.006Z,18.95
2018-08-28T22:33:31.442Z,18.87
2018-08-28T22:36:04.806Z,18.90
2018-08-28T22:38:38.020Z,18.88
2018-08-28T22:41:06.858Z,18.83
2018-08-28T22:43:35.462Z,18.89
2018-08-28T22:46:03.882Z,18.79
2018-08-28T22:48:32.349Z,18.68
2018-08-28T22:51:01.995Z,18.45
2018-08-28T22:53:30.996Z,18.34
2018-08-28T22:55:59.980Z,18.26
2018-08-28T22:58:28.768Z,18.22
2018-08-28T23:00:59.160Z,18.17
2018-08-28T23:03:27.597Z,18.14
2018-08-28T23:05:56.584Z,18.17
2018-08-28T23:08:25.164Z,18.15
2018-08-28T23:10:56.726Z,18.20
2018-08-28T23:13:27.501Z,18.23
2018-08-28T23:15:58.909Z,18.18
2018-08-28T23:18:28.923Z,18.21
2018-08-28T23:20:59.718Z,18.09
2018-08-28T23:23:30.458Z,18.13
2018-08-28T23:25:58.824Z,18.16
2018-08-28T23:28:28.032Z,18.13
2018-08-28T23:30:56.853Z,18.09
2018-08-28T23:33:25.964Z,18.06
2018-08-28T23:35:54.356Z,18.09
2018-08-28T23:38:23.648Z,18.12
2018-08-28T23:40:52.000Z,18.07
2018-08-28T23:43:21.234Z,17.96
2018-08-28T23:45:49.716Z,17.91
2018-08-28T23:48:18.515Z,17.85
2018-08-28T23:50:46.978Z,17.79
2018-08-28T23:53:15.435Z,17.79
2018-08-28T23:55:44.345Z,17.83
2018-08-28T23:58:12.665Z,17.84
